Time;durP1;ratioP1;P1;durP2;ratioP2;P2;SDS_P1;SDS_P2;PMS_P1;PMS_P2;Temp;Humidity;BMP_temperature;BMP_pressure;BME280_temperature;BME280_humidity;BME280_pressure;Samples;Min_cycle;Max_cycle;Signal;HPM_P1;HPM_P2
2023/03/29 00:01:35;;;;;;;1.50;1.40;;;;;;;3.58;47.74;100109.03;5056584;28;19919;-91
2023/03/29 00:04:02;;;;;;;1.05;1.05;;;;;;;3.44;47.54;100079.19;5039021;28;20040;-94
2023/03/29 00:06:31;;;;;;;1.00;1.00;;;;;;;3.51;47.22;100114.09;5044753;28;20032;-92
2023/03/29 00:08:57;;;;;;;1.38;1.38;;;;;;;3.54;47.11;100108.94;5054984;28;20421;-92
2023/03/29 00:11:22;;;;;;;;;;;;;;;3.47;47.25;100110.53;5057285;28;20059;-94
2023/03/29 00:13:49;;;;;;;1.05;1.05;;;;;;;3.26;47.09;100068.38;5055211;28;19912;-93
2023/03/29 00:16:14;;;;;;;5.07;1.27;;;;;;;3.43;47.08;100108.72;5056630;28;20040;-94
2023/03/29 00:18:40;;;;;;;;;;;;;;;3.55;46.71;100115.91;5060750;28;20032;-93
2023/03/29 00:21:05;;;;;;;;;;;;;;;3.48;47.13;100116.66;5025702;28;20439;-91
2023/03/29 00:23:31;;;;;;;;;;;;;;;3.40;48.01;100113.88;5020254;28;20475;-93
2023/03/29 00:25:56;;;;;;;1.00;1.00;;;;;;;3.33;47.06;100106.78;5017368;28;19921;-92
2023/03/29 00:28:23;;;;;;;;;;;;;;;3.30;47.84;100114.53;5020301;28;20009;-94
2023/03/29 00:30:52;;;;;;;1.10;1.10;;;;;;;3.17;47.95;100085.59;5035289;28;19904;-95
2023/03/29 00:33:22;;;;;;;1.00;1.00;;;;;;;3.36;47.85;100088.59;5028684;28;20041;-93
2023/03/29 00:35:52;;;;;;;1.40;1.40;;;;;;;3.20;47.91;100083.06;5047203;28;20111;-96
2023/03/29 00:38:22;;;;;;;1.10;1.10;;;;;;;3.23;48.13;100093.53;5065819;28;20039;-95
2023/03/29 00:40:56;;;;;;;1.00;1.00;;;;;;;3.33;48.40;100109.38;5063158;28;20029;-95
2023/03/29 00:43:29;;;;;;;0.90;0.90;;;;;;;3.22;48.43;100122.19;5067092;28;20049;-92
2023/03/29 00:46:33;;;;;;;1.00;1.00;;;;;;;3.11;48.91;100085.47;5047764;28;20028;-93
2023/03/29 00:49:08;;;;;;;1.10;1.10;;;;;;;3.12;49.22;100104.56;5042429;28;20384;-95
2023/03/29 00:51:42;;;;;;;1.10;1.10;;;;;;;2.89;48.59;100078.00;5043254;28;20036;-93
2023/03/29 00:54:13;;;;;;;0.90;0.90;;;;;;;3.01;49.29;100107.84;5042680;28;20302;-92
2023/03/29 00:56:43;;;;;;;1.90;1.80;;;;;;;3.05;48.93;100112.25;5043221;28;20028;-93
2023/03/29 00:59:28;;;;;;;1.13;1.13;;;;;;;2.98;48.50;100092.16;5044336;28;20041;-93
2023/03/29 01:02:10;;;;;;;1.00;1.00;;;;;;;3.04;48.68;100079.25;5041607;28;20102;-94
2023/03/29 01:05:22;;;;;;;1.00;1.00;;;;;;;3.00;49.19;100106.09;5041471;28;20043;-94
2023/03/29 01:07:57;;;;;;;1.00;1.00;;;;;;;2.93;48.55;100111.13;4997050;28;20507;-94
2023/03/29 01:10:43;;;;;;;1.40;1.40;;;;;;;2.95;48.90;100106.81;5015456;28;20046;-93
2023/03/29 01:13:17;;;;;;;;;;;;;;;3.01;48.61;100115.66;5015731;28;20196;-93
2023/03/29 01:15:44;;;;;;;0.90;0.90;;;;;;;2.93;47.35;100082.44;5017456;28;19928;-94
2023/03/29 01:18:18;;;;;;;1.00;1.00;;;;;;;3.07;47.95;100122.72;4999782;28;20072;-95
2023/03/29 01:21:30;;;;;;;1.00;1.00;;;;;;;3.09;47.79;100126.28;5005845;28;20040;-95
2023/03/29 01:24:08;;;;;;;1.10;1.10;;;;;;;3.05;48.51;100111.41;5016688;28;20052;-93
2023/03/29 01:26:51;;;;;;;1.00;1.00;;;;;;;3.00;47.88;100118.25;5028972;28;20135;-94
2023/03/29 01:29:44;;;;;;;1.00;1.00;;;;;;;3.02;47.90;100121.75;5005644;28;20134;-91
2023/03/29 01:32:26;;;;;;;0.95;0.95;;;;;;;3.04;48.19;100109.63;4994321;28;20044;-92
2023/03/29 01:34:59;;;;;;;1.10;1.10;;;;;;;3.02;47.68;100122.63;5021255;28;20125;-91
2023/03/29 01:37:35;;;;;;;0.90;0.90;;;;;;;2.96;47.68;100117.28;4997890;28;20045;-93
2023/03/29 01:40:01;;;;;;;1.40;1.40;;;;;;;2.93;47.95;100150.22;5010678;28;20129;-90
2023/03/29 01:42:33;;;;;;;;;;;;;;;2.96;47.99;100145.94;5025688;28;20128;-90
2023/03/29 01:45:23;;;;;;;1.23;1.23;;;;;;;2.81;48.10;100107.41;5064763;28;19920;-90
2023/03/29 01:48:11;;;;;;;1.05;1.05;;;;;;;2.76;47.87;100132.44;5032217;28;20029;-91
2023/03/29 01:51:08;;;;;;;0.98;0.98;;;;;;;2.94;47.51;100151.97;5032800;28;20037;-93
2023/03/29 01:53:49;;;;;;;1.65;1.48;;;;;;;2.93;47.40;100124.16;5031851;28;20033;-94
2023/03/29 01:56:20;;;;;;;1.00;1.00;;;;;;;2.95;47.03;100132.88;5035719;28;20494;-94
2023/03/29 01:58:51;;;;;;;1.25;1.25;;;;;;;3.05;47.23;100169.59;5032741;28;20038;-85
2023/03/29 02:01:24;;;;;;;1.00;1.00;;;;;;;2.91;47.35;100158.00;5030908;28;20498;-91
2023/03/29 02:03:54;;;;;;;1.00;1.00;;;;;;;2.92;47.48;100159.78;5043877;28;20147;-90
2023/03/29 02:06:25;;;;;;;1.00;1.00;;;;;;;2.82;48.11;100183.84;5044513;28;20510;-92
2023/03/29 02:08:56;;;;;;;1.00;1.00;;;;;;;2.86;48.07;100167.44;5019006;28;20056;-96
2023/03/29 02:11:24;;;;;;;1.00;1.00;;;;;;;3.09;47.86;100178.41;5035340;28;20115;-95
2023/03/29 02:13:59;;;;;;;1.10;1.10;;;;;;;3.07;47.85;100169.66;5052910;28;20053;-95
2023/03/29 02:16:27;;;;;;;1.05;1.05;;;;;;;2.89;48.29;100149.28;5036677;28;20268;-96
2023/03/29 02:18:56;;;;;;;1.13;1.13;;;;;;;2.81;48.19;100146.47;5032308;28;20478;-94
2023/03/29 02:21:32;;;;;;;1.00;1.00;;;;;;;2.74;47.66;100149.78;5035652;28;20088;-91
2023/03/29 02:24:00;;;;;;;1.10;1.10;;;;;;;2.96;47.78;100184.16;5033789;28;20076;-94
2023/03/29 02:26:28;;;;;;;1.13;1.13;;;;;;;2.82;47.63;100163.00;5037112;28;20044;-95
2023/03/29 02:28:54;;;;;;;1.83;1.73;;;;;;;3.02;47.20;100195.59;5026321;28;20056;-93
2023/03/29 02:31:44;;;;;;;1.63;1.52;;;;;;;3.08;47.35;100205.31;5030563;28;20029;-92
2023/03/29 02:34:32;;;;;;;0.95;0.95;;;;;;;2.80;48.01;100195.97;5041865;28;20029;-92
2023/03/29 02:37:02;;;;;;;0.90;0.90;;;;;;;2.62;48.12;100198.97;5055181;28;20033;-92
2023/03/29 02:39:32;;;;;;;1.00;1.00;;;;;;;2.66;49.07;100212.13;5033713;28;20040;-96
2023/03/29 02:41:58;;;;;;;1.10;1.10;;;;;;;2.23;48.69;100184.97;5030585;28;20128;-94
2023/03/29 02:44:29;;;;;;;1.00;1.00;;;;;;;2.22;49.55;100188.41;5030504;28;20441;-91
2023/03/29 02:47:03;;;;;;;1.90;1.80;;;;;;;2.23;49.85;100202.31;5031856;28;20091;-94
2023/03/29 02:49:28;;;;;;;1.70;1.45;;;;;;;2.47;49.69;100225.50;5030889;28;20044;-93
2023/03/29 02:51:56;;;;;;;;;;;;;;;2.35;49.28;100220.88;5030864;28;20030;-92
2023/03/29 02:54:24;;;;;;;1.95;1.85;;;;;;;2.19;49.23;100192.66;5029312;28;19936;-92
2023/03/29 02:56:58;;;;;;;1.10;1.10;;;;;;;2.27;49.45;100231.06;5029569;28;20021;-88
2023/03/29 02:59:24;;;;;;;2.25;2.10;;;;;;;2.35;49.17;100217.34;5030176;28;20071;-90
2023/03/29 03:01:51;;;;;;;1.15;1.15;;;;;;;2.16;48.71;100196.03;5031126;28;20033;-87
2023/03/29 03:04:19;;;;;;;1.10;1.10;;;;;;;2.23;49.37;100184.09;5030890;28;20029;-93
2023/03/29 03:06:45;;;;;;;1.10;1.10;;;;;;;2.40;48.76;100221.00;5034284;28;20104;-89
2023/03/29 03:09:10;;;;;;;;;;;;;;;2.42;48.61;100225.38;5036860;28;20127;-91
2023/03/29 03:11:36;;;;;;;1.10;1.10;;;;;;;2.20;49.15;100208.31;5030678;28;19913;-93
2023/03/29 03:14:06;;;;;;;;;;;;;;;2.36;48.99;100226.94;5030784;28;20431;-95
2023/03/29 03:16:33;;;;;;;1.33;1.33;;;;;;;2.37;48.46;100231.31;5031339;28;19913;-93
2023/03/29 03:18:59;;;;;;;1.20;1.20;;;;;;;2.21;48.04;100211.78;5028821;28;20033;-89
2023/03/29 03:21:26;;;;;;;1.10;1.10;;;;;;;2.01;48.46;100170.50;5028456;28;20503;-92
2023/03/29 03:23:53;;;;;;;1.60;1.50;;;;;;;2.23;49.06;100210.13;5020289;28;20144;-88
2023/03/29 03:26:19;;;;;;;1.10;1.10;;;;;;;1.93;48.63;100196.31;5013015;28;20451;-84
2023/03/29 03:28:44;;;;;;;;;;;;;;;2.21;49.38;100237.81;5034427;28;20042;-88
2023/03/29 03:31:14;;;;;;;1.10;1.10;;;;;;;2.09;49.45;100228.84;5020423;28;19917;-90
2023/03/29 03:36:01;;;;;;;1.20;1.20;;;;;;;2.09;48.89;100226.25;5098438;27;20956;-89
2023/03/29 03:38:33;;;;;;;1.10;1.10;;;;;;;1.90;48.91;100211.84;5107342;28;20039;-87
2023/03/29 03:41:02;;;;;;;1.10;1.10;;;;;;;1.85;49.20;100197.78;5091542;28;20089;-94
2023/03/29 03:43:28;;;;;;;1.30;1.30;;;;;;;2.19;48.24;100239.50;5105882;28;20058;-93
2023/03/29 03:45:54;;;;;;;;;;;;;;;2.39;48.97;100260.88;5080568;28;20036;-94
2023/03/29 03:48:20;;;;;;;1.10;1.10;;;;;;;2.09;48.28;100252.25;5077465;28;19928;-88
2023/03/29 03:51:04;;;;;;;;;;;;;;;2.26;48.83;100275.28;5068906;28;20441;-87
2023/03/29 03:53:30;;;;;;;1.27;1.27;;;;;;;2.10;48.77;100272.25;5080576;28;19973;-90
2023/03/29 03:55:56;;;;;;;;;;;;;;;2.24;49.13;100275.25;5091224;28;20091;-90
2023/03/29 03:58:23;;;;;;;1.10;1.10;;;;;;;2.03;49.19;100251.22;5088083;28;19944;-95
2023/03/29 04:00:53;;;;;;;1.20;1.20;;;;;;;1.88;49.42;100249.91;5097238;28;20032;-88
2023/03/29 04:03:19;;;;;;;;;;;;;;;1.97;49.38;100277.94;5109997;28;20020;-95
2023/03/29 04:10:16;;;;;;;2.27;2.17;;;;;;;2.13;49.21;100298.38;5054106;28;20396;-94
2023/03/29 04:12:41;;;;;;;;;;;;;;;2.13;49.15;100290.56;5052471;28;20043;-95
2023/03/29 04:17:18;;;;;;;1.00;1.00;;;;;;;2.00;49.21;100272.81;5073050;27;2035803;-85
2023/03/29 04:19:43;;;;;;;;;;;;;;;2.16;49.20;100297.56;5129145;28;20288;-92
2023/03/29 04:22:08;;;;;;;;;;;;;;;2.22;48.80;100299.47;5104258;28;19911;-91
2023/03/29 04:24:34;;;;;;;1.10;1.10;;;;;;;1.94;49.03;100257.91;5099726;28;19919;-88
2023/03/29 04:26:59;;;;;;;;;;;;;;;2.39;49.44;100299.94;5120071;28;20027;-85
2023/03/29 04:29:25;;;;;;;;;;;;;;;2.43;48.46;100312.22;5114143;28;19946;-90
2023/03/29 04:31:50;;;;;;;1.23;1.23;;;;;;;2.49;48.18;100317.59;5111150;28;19907;-88
2023/03/29 04:34:16;;;;;;;;;;;;;;;2.51;47.74;100308.97;5127309;28;20036;-85
2023/03/29 04:36:42;;;;;;;;;;;;;;;2.66;48.66;100303.28;5127558;28;19915;-86
2023/03/29 04:39:08;;;;;;;;;;;;;;;2.45;48.33;100305.31;5109580;28;19915;-85
2023/03/29 04:41:33;;;;;;;1.10;1.10;;;;;;;2.52;48.45;100328.09;5127488;28;20333;-86
2023/03/29 04:44:01;;;;;;;;;;;;;;;2.59;49.17;100327.41;5118281;28;20044;-88
2023/03/29 04:46:26;;;;;;;1.20;1.20;;;;;;;2.31;48.51;100284.09;5109457;28;19912;-94
2023/03/29 04:48:52;;;;;;;;;;;;;;;2.75;48.84;100335.63;5114306;28;20019;-88
2023/03/29 04:51:20;;;;;;;1.55;1.45;;;;;;;2.43;48.22;100302.66;5109754;28;19926;-90
2023/03/29 04:53:48;;;;;;;1.95;1.85;;;;;;;2.46;48.18;100313.16;5126630;28;20031;-93
2023/03/29 04:56:13;;;;;;;1.00;1.00;;;;;;;2.52;47.86;100291.63;5127816;28;20161;-86
2023/03/29 04:58:39;;;;;;;;;;;;;;;2.82;47.79;100328.03;5127832;28;20472;-87
2023/03/29 05:01:04;;;;;;;;;;;;;;;2.80;47.36;100344.47;5127204;28;19949;-88
2023/03/29 05:03:30;;;;;;;1.48;1.40;;;;;;;2.89;47.69;100328.19;5127857;28;19922;-89
2023/03/29 05:06:00;;;;;;;;;;;;;;;3.01;47.84;100345.03;5127105;28;20028;-91
2023/03/29 05:08:26;;;;;;;1.48;1.38;;;;;;;3.09;48.11;100326.09;5127865;28;19999;-89
2023/03/29 05:10:51;;;;;;;;;;;;;;;3.09;47.38;100339.13;5119789;28;20046;-89
2023/03/29 05:13:16;;;;;;;;;;;;;;;3.25;47.03;100348.25;5116214;28;19916;-91
2023/03/29 05:15:42;;;;;;;1.50;1.40;;;;;;;3.09;47.43;100305.25;5121005;28;19915;-92
2023/03/29 05:18:07;;;;;;;;;;;;;;;3.13;47.57;100334.03;5120665;28;20088;-87
2023/03/29 05:20:32;;;;;;;;;;;;;;;3.42;47.20;100348.66;5121323;28;20002;-86
2023/03/29 05:22:58;;;;;;;1.10;1.10;;;;;;;3.37;47.38;100349.41;5118258;28;19919;-85
2023/03/29 05:25:24;;;;;;;;;;;;;;;3.65;46.83;100357.91;5100619;28;20574;-88
2023/03/29 05:27:50;;;;;;;1.30;1.30;;;;;;;3.17;46.51;100312.41;5115731;28;19919;-86
2023/03/29 05:30:15;;;;;;;;;;;;;;;3.51;46.27;100346.28;5094665;28;20024;-85
2023/03/29 05:32:41;;;;;;;;;;;;;;;3.52;46.20;100354.13;5094682;28;20355;-84
2023/03/29 05:35:07;;;;;;;1.15;1.15;;;;;;;3.44;46.34;100326.97;5094683;28;20362;-85
2023/03/29 05:37:33;;;;;;;1.17;1.17;;;;;;;3.35;46.39;100324.13;5112523;28;20036;-84
2023/03/29 05:39:58;;;;;;;;;;;;;;;3.47;47.13;100357.47;5102733;28;20408;-88
2023/03/29 05:44:42;;;;;;;1.10;1.10;;;;;;;3.49;45.62;100343.63;5073791;27;2037674;-84
2023/03/29 05:47:07;;;;;;;;;;;;;;;3.93;46.01;100372.47;5125659;28;20039;-89
2023/03/29 05:49:32;;;;;;;1.45;1.38;;;;;;;3.95;46.18;100343.78;5127881;28;19912;-86
2023/03/29 05:51:58;;;;;;;;;;;;;;;4.11;45.17;100373.75;5127969;28;20145;-88
2023/03/29 05:54:24;;;;;;;;;;;;;;;4.32;45.13;100372.44;5109696;28;19980;-88
2023/03/29 05:56:50;;;;;;;1.08;1.08;;;;;;;4.45;44.47;100377.09;5127705;28;19920;-88
2023/03/29 05:59:16;;;;;;;;;;;;;;;4.52;44.21;100362.41;5128237;28;20527;-88
2023/03/29 06:01:44;;;;;;;1.85;1.70;;;;;;;4.83;44.10;100354.31;5128473;28;20316;-88
2023/03/29 06:04:11;;;;;;;0.80;0.80;;;;;;;4.83;43.99;100362.16;5128305;28;20076;-86
2023/03/29 06:06:36;;;;;;;0.90;0.90;;;;;;;4.77;43.26;100342.84;5128116;28;20023;-86
2023/03/29 06:09:02;;;;;;;;;;;;;;;4.92;42.76;100361.44;5128695;28;20027;-86
2023/03/29 06:11:27;;;;;;;;;;;;;;;5.14;41.78;100373.19;5128995;28;20336;-88
2023/03/29 06:13:53;;;;;;;5.43;1.50;;;;;;;5.42;42.95;100368.41;5128041;28;19911;-87
2023/03/29 06:16:18;;;;;;;;;;;;;;;5.64;41.68;100372.28;5128723;28;20053;-87
2023/03/29 06:18:44;;;;;;;1.20;1.20;;;;;;;5.40;41.05;100379.72;5128105;28;19915;-87
2023/03/29 06:21:09;;;;;;;;;;;;;;;5.41;40.75;100366.66;5128606;28;20088;-86
2023/03/29 06:23:35;;;;;;;;;;;;;;;5.50;41.26;100382.53;5128367;28;19922;-89
2023/03/29 06:26:00;;;;;;;0.95;0.95;;;;;;;5.54;40.35;100381.69;5128093;28;19954;-86
2023/03/29 06:28:26;;;;;;;;;;;;;;;5.69;40.35;100388.91;5128344;28;20054;-87
2023/03/29 06:30:55;;;;;;;0.70;0.70;;;;;;;5.83;39.73;100389.13;5108693;28;19984;-86
2023/03/29 06:33:24;;;;;;;1.35;1.23;;;;;;;5.76;38.89;100392.50;5127554;28;20035;-87
2023/03/29 06:35:49;;;;;;;1.30;1.23;;;;;;;5.59;38.81;100365.19;5127534;28;20030;-88
2023/03/29 06:38:15;;;;;;;;;;;;;;;5.78;38.76;100390.81;5127934;28;20028;-86
2023/03/29 06:40:42;;;;;;;0.98;0.98;;;;;;;5.48;37.91;100370.25;5127604;28;19937;-87
2023/03/29 06:43:07;;;;;;;0.68;0.68;;;;;;;5.88;38.12;100370.88;5127601;28;20058;-88
2023/03/29 06:45:34;;;;;;;;;;;;;;;6.21;36.73;100390.56;5127660;28;20110;-87
2023/03/29 06:48:02;;;;;;;0.75;0.75;;;;;;;5.76;37.14;100358.47;5127730;28;20285;-86
2023/03/29 06:50:27;;;;;;;0.65;0.65;;;;;;;6.20;37.26;100389.72;5127629;28;20032;-89
2023/03/29 06:52:53;;;;;;;;;;;;;;;6.23;36.58;100397.63;5127675;28;20046;-86
2023/03/29 06:55:19;;;;;;;0.80;0.80;;;;;;;5.95;35.86;100337.78;5118373;28;19912;-88
2023/03/29 06:57:46;;;;;;;0.70;0.70;;;;;;;6.10;34.78;100356.38;5113065;28;20027;-86
2023/03/29 07:00:26;;;;;;;1.25;1.25;;;;;;;6.30;35.35;100363.63;5113455;28;20027;-88
2023/03/29 07:03:05;;;;;;;0.60;0.60;;;;;;;6.23;35.49;100339.09;5112813;28;20409;-87
2023/03/29 07:05:31;;;;;;;0.77;0.77;;;;;;;6.30;35.04;100379.34;5113508;28;20031;-88
2023/03/29 07:08:09;;;;;;;0.70;0.70;;;;;;;6.20;35.29;100353.03;5113532;28;20511;-87
2023/03/29 07:10:38;;;;;;;0.70;0.70;;;;;;;6.46;34.80;100368.22;5113443;28;20124;-87
2023/03/29 07:13:05;;;;;;;0.68;0.68;;;;;;;6.55;34.28;100364.81;5113576;28;20066;-87
2023/03/29 07:15:32;;;;;;;1.38;1.25;;;;;;;6.55;34.37;100362.19;5112977;28;20027;-86
2023/03/29 07:17:57;;;;;;;0.70;0.70;;;;;;;6.80;33.54;100393.09;5112723;28;20027;-85
2023/03/29 07:20:23;;;;;;;;;;;;;;;6.84;34.02;100406.25;5113050;28;20049;-86
2023/03/29 07:22:52;;;;;;;0.77;0.77;;;;;;;6.78;35.37;100357.22;5112752;28;20013;-85
2023/03/29 07:25:22;;;;;;;0.60;0.60;;;;;;;6.95;33.86;100384.53;5113695;28;20036;-89
2023/03/29 07:27:48;;;;;;;0.70;0.70;;;;;;;6.97;33.30;100398.53;5112704;28;20027;-87
2023/03/29 07:30:15;;;;;;;;;;;;;;;7.31;32.60;100408.50;5094897;28;20152;-86
2023/03/29 07:32:43;;;;;;;0.73;0.73;;;;;;;6.65;32.76;100378.94;5094347;28;19960;-88
2023/03/29 07:35:09;;;;;;;1.42;1.33;;;;;;;6.79;33.59;100407.06;5094352;28;20088;-93
2023/03/29 07:37:38;;;;;;;1.00;1.00;;;;;;;6.74;32.61;100386.91;5094708;28;20803;-87
2023/03/29 07:40:22;;;;;;;0.70;0.70;;;;;;;6.96;32.12;100411.63;5113281;28;20049;-89
2023/03/29 07:42:52;;;;;;;2.08;1.98;;;;;;;6.17;32.77;100410.63;5112679;28;20019;-87
2023/03/29 07:45:20;;;;;;;0.93;0.93;;;;;;;6.00;33.40;100371.09;5094142;28;20020;-86
2023/03/29 07:47:47;;;;;;;0.70;0.70;;;;;;;6.50;32.91;100379.63;5112330;28;20031;-90
2023/03/29 07:50:13;;;;;;;0.70;0.70;;;;;;;6.51;31.90;100411.09;5113085;28;20392;-88
2023/03/29 07:52:40;;;;;;;0.60;0.60;;;;;;;6.68;30.89;100407.81;5093499;28;20035;-86
2023/03/29 07:55:07;;;;;;;0.70;0.70;;;;;;;6.53;31.06;100393.63;5112886;28;20024;-89
2023/03/29 07:57:33;;;;;;;0.60;0.60;;;;;;;7.04;29.43;100374.97;5112188;28;20044;-86
2023/03/29 07:59:58;;;;;;;;;;;;;;;7.23;29.43;100402.28;5094373;28;20053;-90
2023/03/29 08:02:25;;;;;;;1.05;1.05;;;;;;;6.75;29.75;100371.19;5112132;28;19958;-88
2023/03/29 08:04:52;;;;;;;0.60;0.60;;;;;;;7.37;29.88;100356.06;5112244;28;20413;-89
2023/03/29 08:07:18;;;;;;;0.60;0.60;;;;;;;7.52;28.82;100394.66;5111570;28;20039;-90
2023/03/29 08:09:44;;;;;;;;;;;;;;;7.52;28.47;100373.66;5112489;28;20020;-89
2023/03/29 08:12:12;;;;;;;2.38;1.77;;;;;;;7.47;29.65;100363.13;5112070;28;19907;-87
2023/03/29 08:14:37;;;;;;;0.50;0.50;;;;;;;7.65;28.83;100372.91;5111622;28;20034;-86
2023/03/29 08:17:03;;;;;;;;;;;;;;;7.57;28.15;100387.72;5112461;28;20436;-88
2023/03/29 08:19:29;;;;;;;0.50;0.50;;;;;;;7.73;29.93;100387.84;5111545;28;19935;-88
2023/03/29 08:21:55;;;;;;;;;;;;;;;7.93;29.09;100362.59;5112299;28;20137;-90
2023/03/29 08:24:20;;;;;;;0.50;0.50;;;;;;;7.97;29.35;100381.88;5111673;28;20384;-89
2023/03/29 08:26:47;;;;;;;;;;;;;;;8.28;29.56;100393.47;5112226;28;20027;-89
2023/03/29 08:29:13;;;;;;;0.60;0.60;;;;;;;8.26;29.14;100384.69;5111846;28;19912;-88
2023/03/29 08:31:40;;;;;;;;;;;;;;;8.52;30.54;100382.22;5111797;28;20416;-88
2023/03/29 08:34:05;;;;;;;0.57;0.57;;;;;;;8.30;28.74;100360.19;5111690;28;19912;-90
2023/03/29 08:36:31;;;;;;;;;;;;;;;8.48;29.86;100369.03;5111992;28;20046;-86
2023/03/29 08:38:56;;;;;;;;;;;;;;;7.75;27.98;100379.09;5112682;28;19992;-89
2023/03/29 08:41:40;;;;;;;;;;;;;;;8.09;29.96;100386.34;5111718;28;20008;-89
2023/03/29 08:44:16;;;;;;;0.73;0.73;;;;;;;7.98;31.87;100349.50;5111555;28;19968;-88
2023/03/29 08:46:48;;;;;;;;;;;;;;;8.31;30.50;100368.94;5112409;28;20118;-88
2023/03/29 08:49:15;;;;;;;0.50;0.50;;;;;;;8.04;28.98;100379.31;5111253;28;19919;-88
2023/03/29 08:51:51;;;;;;;0.80;0.80;;;;;;;7.98;27.71;100384.50;5110971;28;20027;-88
2023/03/29 08:54:23;;;;;;;0.52;0.52;;;;;;;7.70;28.21;100344.06;5092517;28;20036;-88
2023/03/29 08:56:51;;;;;;;1.05;1.05;;;;;;;7.78;30.37;100362.50;5110894;28;20038;-89
2023/03/29 08:59:26;;;;;;;0.50;0.50;;;;;;;8.00;30.04;100359.16;5106703;28;20031;-89
2023/03/29 09:01:54;;;;;;;1.10;1.10;;;;;;;8.17;30.13;100351.38;5075770;28;20050;-87
2023/03/29 09:04:26;;;;;;;0.73;0.73;;;;;;;8.49;30.77;100371.69;5078199;28;20062;-92
2023/03/29 09:06:53;;;;;;;0.50;0.50;;;;;;;8.38;28.48;100355.81;5091884;28;20046;-92
2023/03/29 09:09:21;;;;;;;0.70;0.70;;;;;;;8.43;30.06;100303.25;5089958;28;20492;-92
2023/03/29 09:12:21;;;;;;;11.70;1.95;;;;;;;8.03;29.69;100361.78;5082647;28;20028;-91
2023/03/29 09:15:08;;;;;;;1.23;1.20;;;;;;;7.81;29.74;100366.00;5097407;28;20475;-90
2023/03/29 09:17:55;;;;;;;1.25;1.25;;;;;;;8.03;28.86;100367.06;5079736;28;20035;-88
2023/03/29 09:20:30;;;;;;;2.25;2.15;;;;;;;7.77;31.37;100360.72;5104099;28;20034;-92
2023/03/29 09:23:22;;;;;;;0.60;0.60;;;;;;;8.20;31.09;100324.19;5091271;28;20028;-90
2023/03/29 09:26:15;;;;;;;0.50;0.50;;;;;;;8.62;30.29;100341.06;5106616;28;20191;-89
2023/03/29 09:29:00;;;;;;;14.88;5.30;;;;;;;7.50;28.84;100329.03;5081214;28;20032;-92
2023/03/29 09:31:36;;;;;;;1.08;1.08;;;;;;;7.37;29.95;100311.44;5091254;28;20585;-93
2023/03/29 09:34:15;;;;;;;1.05;1.05;;;;;;;7.26;28.37;100328.81;5092530;28;20078;-87
2023/03/29 09:36:54;;;;;;;0.60;0.60;;;;;;;8.35;28.43;100361.06;5106059;28;20073;-90
2023/03/29 09:39:21;;;;;;;0.90;0.90;;;;;;;8.43;28.13;100340.06;5106318;28;20044;-91
2023/03/29 09:41:58;;;;;;;0.60;0.60;;;;;;;7.77;27.81;100323.94;5111587;28;20031;-91
2023/03/29 09:44:30;;;;;;;0.50;0.50;;;;;;;7.95;28.74;100320.56;5091448;28;20059;-91
2023/03/29 09:47:11;;;;;;;0.50;0.50;;;;;;;8.46;28.46;100368.16;5084027;28;20032;-93
2023/03/29 09:49:42;;;;;;;0.80;0.80;;;;;;;8.23;28.91;100325.13;5086724;28;20039;-91
2023/03/29 09:52:15;;;;;;;1.25;1.17;;;;;;;8.55;29.88;100348.03;5095653;28;20035;-88
2023/03/29 09:54:43;;;;;;;1.23;1.15;;;;;;;8.45;28.21;100326.97;5091111;28;20032;-90
2023/03/29 09:57:12;;;;;;;0.40;0.40;;;;;;;8.48;28.19;100329.59;5089182;28;20477;-92
2023/03/29 09:59:39;;;;;;;0.50;0.50;;;;;;;8.63;27.02;100307.75;5075585;28;20023;-93
2023/03/29 10:02:07;;;;;;;0.88;0.88;;;;;;;8.88;29.37;100332.34;5081759;28;20032;-88
2023/03/29 10:04:34;;;;;;;0.50;0.50;;;;;;;8.94;29.08;100319.22;5076774;28;20173;-94
2023/03/29 10:07:00;;;;;;;2.65;1.42;;;;;;;8.71;28.21;100329.69;5084091;28;20040;-90
2023/03/29 10:09:27;;;;;;;;;;;;;;;9.34;30.43;100336.81;5056110;28;20048;-94
2023/03/29 10:12:01;;;;;;;0.40;0.40;;;;;;;9.09;30.39;100324.50;5089770;28;19934;-95
2023/03/29 10:14:30;;;;;;;0.50;0.50;;;;;;;9.16;28.17;100343.81;5072388;28;20028;-94
2023/03/29 10:16:57;;;;;;;0.57;0.57;;;;;;;8.83;27.83;100307.78;5096077;28;20030;-89
2023/03/29 10:19:33;;;;;;;0.50;0.50;;;;;;;8.61;29.47;100291.97;5093103;28;20031;-93
2023/03/29 10:22:03;;;;;;;0.50;0.50;;;;;;;8.88;27.93;100329.72;5085826;28;20545;-92
2023/03/29 10:24:29;;;;;;;0.50;0.50;;;;;;;8.93;25.67;100317.47;5072548;28;20042;-90
2023/03/29 10:27:06;;;;;;;;;;;;;;;9.21;27.19;100320.13;5072764;28;20044;-93
2023/03/29 10:29:41;;;;;;;0.50;0.50;;;;;;;8.91;26.78;100296.41;5091327;28;20329;-94
2023/03/29 10:32:33;;;;;;;1.10;0.75;;;;;;;9.27;26.17;100296.44;5094481;28;20027;-93
2023/03/29 10:35:23;;;;;;;0.95;0.95;;;;;;;9.73;28.47;100291.13;5097194;28;20039;-94
2023/03/29 10:37:54;;;;;;;1.20;1.10;;;;;;;9.57;26.85;100306.06;5096955;28;20028;-95
2023/03/29 10:40:34;;;;;;;2.55;1.50;;;;;;;9.39;26.83;100278.00;5096402;28;20046;-92
2023/03/29 10:43:11;;;;;;;0.50;0.50;;;;;;;9.42;25.92;100291.19;5095287;28;20440;-89
2023/03/29 10:45:38;;;;;;;1.48;0.98;;;;;;;9.63;27.49;100234.94;5109546;28;20042;-93
2023/03/29 10:48:08;;;;;;;0.45;0.45;;;;;;;9.88;25.93;100281.44;5109880;28;20061;-90
2023/03/29 10:50:38;;;;;;;1.08;1.02;;;;;;;9.85;28.23;100250.69;5110592;28;20036;-92
2023/03/29 10:53:26;;;;;;;0.85;0.85;;;;;;;10.23;26.15;100280.44;5096868;28;20020;-90
2023/03/29 10:56:12;;;;;;;0.77;0.77;;;;;;;10.19;26.65;100293.63;5091284;28;20126;-92
2023/03/29 10:59:14;;;;;;;0.40;0.40;;;;;;;9.50;25.35;100278.88;5096926;28;20074;-89
2023/03/29 11:02:11;;;;;;;1.25;1.20;;;;;;;9.68;27.26;100274.44;5125940;28;20027;-88
2023/03/29 11:04:39;;;;;;;0.70;0.70;;;;;;;9.84;25.69;100249.81;5108852;28;20036;-91
2023/03/29 11:07:08;;;;;;;0.70;0.70;;;;;;;10.20;26.10;100250.53;5102417;28;20032;-91
2023/03/29 11:09:39;;;;;;;0.43;0.43;;;;;;;9.88;25.16;100260.34;5095791;28;20035;-91
2023/03/29 11:12:20;;;;;;;0.40;0.40;;;;;;;9.88;24.46;100255.06;5094897;28;20039;-88
2023/03/29 11:15:01;;;;;;;0.55;0.55;;;;;;;9.63;25.04;100256.00;5113847;28;20035;-95
2023/03/29 11:18:13;;;;;;;1.42;1.33;;;;;;;9.81;24.90;100223.47;5095834;28;20023;-93
2023/03/29 11:20:46;;;;;;;0.40;0.40;;;;;;;9.96;24.34;100226.91;5082032;28;20032;-89
2023/03/29 11:23:42;;;;;;;3.50;2.05;;;;;;;10.13;23.39;100224.22;5092998;28;20031;-91
2023/03/29 11:26:08;;;;;;;0.40;0.40;;;;;;;10.23;22.55;100228.56;5113914;28;20429;-91
2023/03/29 11:28:37;;;;;;;;;;;;;;;10.19;22.71;100216.28;5096102;28;20070;-93
2023/03/29 11:31:25;;;;;;;0.30;0.30;;;;;;;10.43;22.33;100222.34;5113384;28;19912;-85
2023/03/29 11:34:11;;;;;;;0.50;0.50;;;;;;;10.69;24.42;100195.75;5094131;28;20023;-91
2023/03/29 11:36:41;;;;;;;0.40;0.40;;;;;;;11.14;24.03;100198.94;5094822;28;20038;-92
2023/03/29 11:39:18;;;;;;;0.68;0.68;;;;;;;11.00;23.99;100201.69;5094441;28;20404;-88
2023/03/29 11:41:48;;;;;;;0.40;0.40;;;;;;;10.63;23.40;100188.78;5094863;28;20057;-90
2023/03/29 11:44:28;;;;;;;1.75;1.30;;;;;;;10.79;24.08;100207.16;5113213;28;20051;-92
2023/03/29 11:47:00;;;;;;;0.40;0.40;;;;;;;10.10;23.32;100151.31;5095776;28;20027;-92
2023/03/29 11:49:31;;;;;;;0.40;0.40;;;;;;;10.47;24.91;100153.75;5126529;28;20025;-92
2023/03/29 11:52:17;;;;;;;0.70;0.70;;;;;;;10.79;23.11;100186.03;5115740;28;20045;-89
2023/03/29 11:54:56;;;;;;;2.38;1.73;;;;;;;10.99;24.07;100199.06;5110851;28;20095;-88
2023/03/29 11:57:36;;;;;;;2.03;1.48;;;;;;;11.15;22.18;100198.03;5115814;28;20020;-88
2023/03/29 12:00:14;;;;;;;0.73;0.60;;;;;;;10.82;21.35;100191.28;5113131;28;20027;-94
2023/03/29 12:03:09;;;;;;;0.38;0.38;;;;;;;11.29;23.14;100190.84;5112935;28;20089;-92
2023/03/29 12:05:49;;;;;;;0.70;0.70;;;;;;;11.69;22.61;100173.69;5009261;28;20132;-88
2023/03/29 12:08:46;;;;;;;0.30;0.30;;;;;;;11.18;20.82;100183.91;5009996;28;20034;-92
2023/03/29 12:11:22;;;;;;;0.40;0.40;;;;;;;10.90;21.07;100166.56;5009102;28;20034;-92
2023/03/29 12:14:01;;;;;;;0.43;0.43;;;;;;;11.04;21.40;100150.59;5010584;28;20030;-94
2023/03/29 12:16:38;;;;;;;0.60;0.60;;;;;;;10.93;21.58;100142.78;4993854;28;20038;-93
2023/03/29 12:19:13;;;;;;;0.40;0.40;;;;;;;11.15;22.30;100155.78;5009231;28;20037;-93